Time;durP1;ratioP1;P1;durP2;ratioP2;P2;SDS_P1;SDS_P2;PMS_P1;PMS_P2;Temp;Humidity;BMP_temperature;BMP_pressure;BME280_temperature;BME280_humidity;BME280_pressure;Samples;Min_cycle;Max_cycle;Signal;HPM_P1;HPM_P2
2023/01/07 00:00:52;;;;;;;;;3.00;3.00;;;;;12.53;64.01;101203.41;5093133;27;45426;-65
2023/01/07 00:03:18;;;;;;;;;2.00;2.00;;;;;12.40;63.83;101176.75;5077394;28;45445;-64
2023/01/07 00:05:43;;;;;;;;;3.25;3.25;;;;;12.54;64.20;101188.59;5058530;28;45986;-63
2023/01/07 00:08:09;;;;;;;;;3.00;3.00;;;;;12.30;64.06;101148.81;5075488;28;45818;-64
2023/01/07 00:10:35;;;;;;;;;2.75;2.75;;;;;12.55;64.12;101183.94;5076580;28;45350;-64
2023/01/07 00:13:00;;;;;;;;;3.25;2.75;;;;;12.57;63.76;101184.56;5059381;28;45361;-64
2023/01/07 00:15:26;;;;;;;;;3.00;3.00;;;;;12.51;63.14;101180.75;5077422;28;45354;-64
2023/01/07 00:17:51;;;;;;;;;1.75;1.75;;;;;12.51;63.76;101178.00;5058740;28;46016;-63
2023/01/07 00:20:17;;;;;;;;;5.00;4.50;;;;;12.44;63.24;101155.97;5077149;28;45495;-63
2023/01/07 00:22:43;;;;;;;;;3.50;3.25;;;;;12.54;63.35;101166.56;5059434;28;45340;-64
2023/01/07 00:25:08;;;;;;;;;4.00;4.00;;;;;12.55;63.88;101162.75;5059196;28;45662;-64
2023/01/07 00:27:34;;;;;;;;;2.00;2.00;;;;;12.08;62.80;101080.28;5076778;28;46394;-65
2023/01/07 00:29:59;;;;;;;;;4.00;2.25;;;;;12.53;63.75;101158.53;5076942;28;45467;-64
2023/01/07 00:32:48;;;;;;;;;1.00;1.00;;;;;12.54;63.58;101146.47;5076344;28;45349;-65
2023/01/07 00:35:22;;;;;;;;;3.80;2.60;;;;;12.54;63.27;101130.75;5077147;28;45404;-64
2023/01/07 00:37:49;;;;;;;;;4.20;4.00;;;;;12.50;63.08;101132.28;5076604;28;47049;-65
2023/01/07 00:40:14;;;;;;;;;1.20;0.80;;;;;12.46;63.31;101133.75;5076837;28;45225;-64
2023/01/07 00:45:24;;;;;;;;;4.20;3.80;;;;;12.44;63.20;101124.88;5076865;28;45313;-65
2023/01/07 00:47:53;;;;;;;;;4.25;4.25;;;;;12.39;63.25;101106.22;5076605;28;45349;-64
2023/01/07 00:50:22;;;;;;;;;3.60;3.00;;;;;12.44;63.77;101109.19;5058958;28;45429;-64
2023/01/07 00:52:48;;;;;;;;;2.60;2.60;;;;;12.29;63.70;101075.56;5058405;28;45388;-64
2023/01/07 00:55:13;;;;;;;;;3.25;3.00;;;;;12.43;62.97;101095.66;5076693;28;45385;-64
2023/01/07 00:57:40;;;;;;;;;2.25;2.25;;;;;12.42;63.28;101102.19;5076571;28;45632;-63
2023/01/07 01:00:08;;;;;;;;;2.00;2.00;;;;;12.36;63.38;101078.28;5077030;28;45445;-64
2023/01/07 01:02:34;;;;;;;;;2.20;2.00;;;;;12.48;63.49;101079.31;5058201;28;45401;-65
2023/01/07 01:04:59;;;;;;;;;4.00;4.00;;;;;12.39;63.28;101067.69;5076572;28;45359;-65
2023/01/07 01:07:25;;;;;;;;;1.75;1.75;;;;;12.42;63.38;101071.91;5058169;28;46235;-64
2023/01/07 01:09:50;;;;;;;;;2.50;2.25;;;;;12.38;63.71;101073.44;5076163;28;45385;-64
2023/01/07 01:12:16;;;;;;;;;2.00;1.75;;;;;12.32;63.67;101053.97;5075364;28;45282;-64
2023/01/07 01:14:41;;;;;;;;;2.00;2.00;;;;;12.40;62.96;101063.03;5058119;28;45582;-65
2023/01/07 01:17:07;;;;;;;;;1.50;1.50;;;;;12.32;63.15;101037.44;5074856;28;46932;-64
2023/01/07 01:19:32;;;;;;;;;3.00;3.00;;;;;12.21;63.12;101024.34;5057669;28;45323;-64
2023/01/07 01:21:58;;;;;;;;;1.75;1.75;;;;;12.27;62.86;101030.91;5047560;28;45373;-64
2023/01/07 01:24:23;;;;;;;;;3.00;3.00;;;;;12.32;63.01;101028.34;5072990;28;45318;-63
2023/01/07 01:26:49;;;;;;;;;3.50;2.00;;;;;12.49;63.02;101056.22;5071659;28;45977;-62
2023/01/07 01:29:14;;;;;;;;;5.25;3.00;;;;;12.24;62.57;101014.81;5076268;28;45473;-64
2023/01/07 01:31:40;;;;;;;;;2.00;2.00;;;;;12.41;62.81;101050.97;5075873;28;45332;-63
2023/01/07 01:34:05;;;;;;;;;3.00;2.00;;;;;12.44;62.84;101047.78;5074923;28;45376;-63
2023/01/07 01:36:31;;;;;;;;;2.75;1.00;;;;;12.42;62.74;101045.25;5075907;28;46793;-63
2023/01/07 01:38:56;;;;;;;;;3.00;3.00;;;;;12.41;62.75;101048.22;5057764;28;45349;-65
2023/01/07 01:41:22;;;;;;;;;2.50;2.00;;;;;12.24;62.96;101014.81;5074719;28;45393;-64
2023/01/07 01:43:47;;;;;;;;;2.00;2.00;;;;;12.36;62.44;101035.09;5023512;28;45516;-64
2023/01/07 01:46:32;;;;;;;;;5.50;3.50;;;;;12.39;62.81;101039.34;5057105;28;45363;-64
2023/01/07 01:49:07;;;;;;;;;3.40;3.20;;;;;12.26;62.42;101015.44;5057306;28;45417;-65
2023/01/07 01:51:35;;;;;;;;;1.80;1.80;;;;;12.39;63.08;101028.31;5057627;28;45431;-65
2023/01/07 01:54:05;;;;;;;;;2.80;2.00;;;;;12.34;62.86;101020.72;5057784;28;45527;-63
2023/01/07 01:56:33;;;;;;;;;2.40;2.40;;;;;12.33;63.00;101022.63;5057580;28;46615;-62
2023/01/07 01:59:10;;;;;;;;;3.00;1.80;;;;;12.30;63.10;101016.72;5057290;28;46176;-63
2023/01/07 02:01:36;;;;;;;;;2.60;1.60;;;;;12.34;63.06;101016.06;5057760;28;45524;-65
2023/01/07 02:04:07;;;;;;;;;3.25;2.25;;;;;12.32;63.03;101011.81;5075805;28;45547;-63
2023/01/07 02:06:33;;;;;;;;;2.20;2.20;;;;;12.30;63.34;101012.06;5036991;28;45620;-63
2023/01/07 02:08:59;;;;;;;;;3.00;2.00;;;;;12.16;63.19;100986.47;5037283;28;45403;-63
2023/01/07 02:11:56;;;;;;;;;3.00;2.00;;;;;12.29;63.02;101013.13;5054851;28;45455;-63
2023/01/07 02:14:49;;;;;;;;;2.00;2.00;;;;;12.28;64.00;101008.66;5020456;28;45353;-63
2023/01/07 02:17:39;;;;;;;;;1.80;1.80;;;;;12.25;63.39;101009.09;5054380;28;46511;-61
2023/01/07 02:20:28;;;;;;;;;3.20;3.00;;;;;12.28;63.76;101013.34;5054619;28;45358;-63
2023/01/07 02:23:13;;;;;;;;;2.60;1.40;;;;;12.27;63.61;101003.41;5055021;28;45426;-63
2023/01/07 02:26:13;;;;;;;;;3.00;3.00;;;;;12.23;63.56;101002.13;5055159;28;45428;-63
2023/01/07 02:29:24;;;;;;;;;2.60;2.00;;;;;12.24;64.01;100995.56;5036301;28;45800;-62
2023/01/07 02:32:08;;;;;;;;;1.60;1.60;;;;;12.25;63.89;101000.84;5054675;28;45457;-63
2023/01/07 02:34:39;;;;;;;;;3.60;3.00;;;;;12.26;63.79;100994.28;5054273;28;45903;-63
2023/01/07 02:37:16;;;;;;;;;3.40;2.80;;;;;12.15;63.95;100981.19;5054573;28;45315;-63
2023/01/07 02:40:30;;;;;;;;;4.00;1.80;;;;;12.13;63.98;100980.56;5035873;28;47390;-63
2023/01/07 02:43:09;;;;;;;;;3.00;2.80;;;;;12.01;64.12;100966.63;5008046;28;45389;-62
2023/01/07 02:45:59;;;;;;;;;2.20;2.20;;;;;12.13;63.81;100983.31;5054500;28;45220;-63
2023/01/07 02:48:25;;;;;;;;;3.00;2.20;;;;;12.15;63.75;100982.03;5042221;28;45389;-63
2023/01/07 02:50:50;;;;;;;;;3.00;2.00;;;;;12.10;63.51;100968.09;5053000;28;45899;-63
2023/01/07 02:53:17;;;;;;;;;1.75;1.75;;;;;12.12;63.74;100968.72;5036609;28;45450;-63
2023/01/07 02:56:05;;;;;;;;;1.40;1.40;;;;;11.98;63.82;100943.13;5053161;28;45264;-63
2023/01/07 02:58:55;;;;;;;;;2.00;1.00;;;;;12.16;63.73;100963.59;5022099;28;45520;-64
2023/01/07 03:01:23;;;;;;;;;0.60;0.60;;;;;11.96;63.18;100927.91;5016541;28;45618;-63
2023/01/07 03:04:13;;;;;;;;;1.60;1.00;;;;;12.17;63.79;100952.41;5036100;28;45436;-63
2023/01/07 03:07:05;;;;;;;;;1.80;1.80;;;;;12.15;63.46;100939.91;5052761;28;45369;-62
2023/01/07 03:09:32;;;;;;;;;2.00;2.00;;;;;12.19;63.51;100942.03;5036895;28;45751;-63
2023/01/07 03:12:19;;;;;;;;;1.40;1.40;;;;;12.19;63.37;100938.44;5052952;28;46621;-63
2023/01/07 03:15:05;;;;;;;;;2.80;1.40;;;;;12.19;63.42;100932.94;5052614;28;45466;-64
2023/01/07 03:17:35;;;;;;;;;1.40;1.40;;;;;12.16;63.51;100927.84;5053231;28;45319;-62
2023/01/07 03:20:01;;;;;;;;;2.60;1.80;;;;;12.16;63.00;100916.84;5036633;28;45449;-62
2023/01/07 03:22:27;;;;;;;;;1.75;1.75;;;;;12.13;63.08;100931.91;5052933;28;45418;-62
2023/01/07 03:24:54;;;;;;;;;1.00;1.00;;;;;12.14;62.79;100921.72;5052169;28;45469;-62
2023/01/07 03:27:19;;;;;;;;;1.20;1.20;;;;;12.13;62.90;100909.03;5054125;28;45340;-61
2023/01/07 03:29:47;;;;;;;;;1.00;1.00;;;;;12.19;62.92;100919.16;5035775;28;45410;-61
2023/01/07 03:32:35;;;;;;;;;1.80;1.80;;;;;12.16;63.15;100900.31;5052404;28;45806;-62
2023/01/07 03:35:00;;;;;;;;;1.40;1.40;;;;;11.69;62.38;100813.31;5038582;28;45496;-63
2023/01/07 03:37:25;;;;;;;;;1.00;1.00;;;;;12.23;62.44;100898.41;5036115;28;45364;-64
2023/01/07 03:39:51;;;;;;;;;1.00;1.00;;;;;11.95;62.18;100860.19;5052612;28;45523;-64
2023/01/07 03:45:06;;;;;;;;;5.20;2.00;;;;;12.22;61.94;100893.94;5053389;28;45443;-63
2023/01/07 03:47:31;;;;;;;;;2.00;1.00;;;;;12.11;61.67;100875.41;5054050;28;45322;-63
2023/01/07 03:49:57;;;;;;;;;1.25;1.25;;;;;12.16;61.56;100884.69;5052467;28;45461;-63
2023/01/07 03:52:22;;;;;;;;;0.25;0.25;;;;;11.89;61.40;100840.75;5053789;28;45324;-63
2023/01/07 03:54:48;;;;;;;;;1.50;1.00;;;;;12.19;61.63;100878.75;5053562;28;45478;-63
2023/01/07 03:57:13;;;;;;;;;0.75;0.75;;;;;12.18;61.17;100866.03;5053228;28;45287;-63
2023/01/07 03:59:39;;;;;;;;;3.00;1.00;;;;;12.18;61.52;100863.28;5052402;28;45512;-63
2023/01/07 04:02:04;;;;;;;;;0.00;0.00;;;;;12.03;61.30;100843.44;5053129;28;45501;-64
2023/01/07 04:04:31;;;;;;;;;1.00;1.00;;;;;12.19;61.25;100856.75;5056466;28;46033;-63
2023/01/07 04:06:56;;;;;;;;;0.40;0.00;;;;;12.15;60.86;100843.63;5073985;28;45466;-64
2023/01/07 04:09:22;;;;;;;;;1.00;1.00;;;;;12.16;60.81;100848.91;5077705;28;45548;-63
2023/01/07 04:11:47;;;;;;;;;1.00;1.00;;;;;12.11;61.15;100836.88;5077293;28;45957;-64
2023/01/07 04:14:13;;;;;;;;;0.00;0.00;;;;;12.14;61.35;100841.94;5092467;27;45494;-64
2023/01/07 04:16:38;;;;;;;;;1.25;1.25;;;;;12.14;61.06;100840.03;5077413;28;45340;-64
2023/01/07 04:19:04;;;;;;;;;2.75;1.75;;;;;12.14;61.38;100831.78;5092658;27;45282;-63
2023/01/07 04:21:29;;;;;;;;;1.25;1.25;;;;;12.15;60.85;100827.09;5075758;28;45354;-63
2023/01/07 04:23:55;;;;;;;;;1.00;1.00;;;;;12.06;60.67;100824.63;5061992;28;45611;-64
2023/01/07 04:26:20;;;;;;;;;0.75;0.50;;;;;12.05;61.33;100816.56;5043437;28;45945;-64
2023/01/07 04:28:46;;;;;;;;;2.00;2.00;;;;;12.03;60.82;100808.56;5059402;28;45554;-65
2023/01/07 04:31:11;;;;;;;;;1.00;1.00;;;;;12.01;61.28;100799.63;5041639;28;45378;-65
2023/01/07 04:33:37;;;;;;;;;1.50;1.00;;;;;11.75;61.32;100762.13;5077214;28;45218;-65
2023/01/07 04:36:03;;;;;;;;;1.50;1.50;;;;;11.93;61.70;100789.75;5058975;28;45395;-65
2023/01/07 04:38:28;;;;;;;;;1.25;1.00;;;;;11.92;61.51;100782.53;5076892;28;45539;-65
2023/01/07 04:40:54;;;;;;;;;1.00;1.00;;;;;11.87;61.85;100768.63;5076943;28;45563;-65
2023/01/07 04:43:19;;;;;;;;;0.00;0.00;;;;;11.77;61.43;100758.09;5076511;28;45582;-64
2023/01/07 04:45:45;;;;;;;;;2.50;1.00;;;;;11.83;61.78;100767.38;5059218;28;45409;-64
2023/01/07 04:48:10;;;;;;;;;1.50;1.00;;;;;11.80;61.92;100765.09;5077334;28;45337;-65
2023/01/07 04:50:36;;;;;;;;;3.00;1.50;;;;;11.79;61.75;100769.72;5076793;28;46528;-65
2023/01/07 04:53:01;;;;;;;;;1.00;1.00;;;;;11.76;61.91;100753.69;5076814;28;45377;-64
2023/01/07 04:55:27;;;;;;;;;1.00;1.00;;;;;11.69;61.82;100750.09;5058477;28;45426;-65
2023/01/07 04:57:52;;;;;;;;;2.75;2.00;;;;;11.66;62.18;100734.91;5077196;28;45448;-64
2023/01/07 05:00:18;;;;;;;;;3.00;2.00;;;;;11.48;62.52;100710.88;5076525;28;46196;-65
2023/01/07 05:02:43;;;;;;;;;3.50;2.00;;;;;11.61;62.64;100733.84;5058307;28;45471;-65
2023/01/07 05:05:09;;;;;;;;;2.00;2.00;;;;;11.25;62.41;100675.69;5058324;28;45226;-64
2023/01/07 05:07:34;;;;;;;;;4.25;2.75;;;;;11.32;62.71;100687.47;5058496;28;45405;-65
2023/01/07 05:10:00;;;;;;;;;1.00;1.00;;;;;11.50;63.26;100717.00;5076682;28;46811;-64
2023/01/07 05:12:25;;;;;;;;;3.00;3.00;;;;;11.47;63.49;100708.38;5058212;28;45960;-64
2023/01/07 05:14:51;;;;;;;;;3.00;1.75;;;;;11.44;63.30;100695.03;5058481;28;45323;-64
2023/01/07 05:17:16;;;;;;;;;3.00;2.00;;;;;11.43;63.74;100701.59;5076906;28;45582;-64
2023/01/07 05:19:42;;;;;;;;;5.50;2.00;;;;;11.39;63.90;100704.78;5075157;28;45418;-64
2023/01/07 05:22:07;;;;;;;;;2.50;2.50;;;;;11.36;63.71;100696.13;5076395;28;45380;-64
2023/01/07 05:24:33;;;;;;;;;4.00;2.25;;;;;11.31;64.35;100707.78;5057685;28;45358;-65
2023/01/07 05:26:58;;;;;;;;;4.25;2.75;;;;;11.11;64.49;100681.22;5055672;28;45475;-65
2023/01/07 05:29:24;;;;;;;;;3.75;3.75;;;;;11.20;64.39;100692.00;5055224;28;47429;-65
2023/01/07 05:31:49;;;;;;;;;2.75;2.75;;;;;11.20;64.59;100695.56;5075896;28;45475;-64
2023/01/07 05:34:15;;;;;;;;;2.50;2.50;;;;;11.14;65.13;100681.88;5076637;28;45441;-65
2023/01/07 05:36:40;;;;;;;;;3.00;3.00;;;;;11.11;65.26;100691.38;5056661;28;45669;-65
2023/01/07 05:39:06;;;;;;;;;4.25;2.00;;;;;11.06;65.32;100678.28;5076274;28;46267;-65
2023/01/07 05:41:31;;;;;;;;;2.25;2.25;;;;;11.06;65.81;100686.53;5074789;28;45406;-64
2023/01/07 05:43:57;;;;;;;;;3.00;2.00;;;;;11.05;65.55;100684.00;5076150;28;45373;-64
2023/01/07 05:46:22;;;;;;;;;5.00;4.00;;;;;10.84;65.40;100642.03;5091976;27;45354;-64
2023/01/07 05:48:48;;;;;;;;;4.50;4.00;;;;;10.99;65.72;100677.47;5057352;28;45393;-64
2023/01/07 05:51:13;;;;;;;;;3.75;3.75;;;;;10.96;65.96;100670.53;5091270;27;45454;-65
2023/01/07 05:53:39;;;;;;;;;3.75;2.75;;;;;10.91;66.61;100674.97;5057265;28;45344;-64
2023/01/07 05:56:05;;;;;;;;;3.25;2.25;;;;;10.89;66.37;100683.41;5076012;28;45466;-64
2023/01/07 05:58:30;;;;;;;;;4.75;2.50;;;;;10.78;66.06;100673.09;5057326;28;46537;-64
2023/01/07 06:00:56;;;;;;;;;2.75;2.25;;;;;10.78;66.78;100689.59;5057487;28;45247;-65
2023/01/07 06:03:21;;;;;;;;;3.50;3.50;;;;;10.72;66.68;100691.25;5075847;28;45264;-65
2023/01/07 06:05:47;;;;;;;;;3.25;3.25;;;;;10.69;66.50;100669.75;5073978;28;45273;-65
2023/01/07 06:08:13;;;;;;;;;4.60;3.80;;;;;10.60;67.01;100657.28;5075495;28;45979;-64
2023/01/07 06:10:39;;;;;;;;;5.25;4.00;;;;;10.74;67.22;100674.59;5057557;28;45356;-63
2023/01/07 06:13:05;;;;;;;;;3.00;3.00;;;;;10.74;66.93;100671.84;5074193;28;45370;-63
2023/01/07 06:15:30;;;;;;;;;4.50;4.00;;;;;10.52;66.93;100644.66;5075352;28;45343;-64
2023/01/07 06:17:56;;;;;;;;;5.50;3.75;;;;;10.69;67.50;100675.22;5056547;28;45704;-64
2023/01/07 06:20:22;;;;;;;;;4.00;4.00;;;;;10.63;66.72;100667.84;5075061;28;45460;-64
2023/01/07 06:22:48;;;;;;;;;5.80;4.00;;;;;10.60;66.86;100663.63;5056448;28;45548;-64
2023/01/07 06:25:14;;;;;;;;;3.00;3.00;;;;;10.65;66.53;100671.22;5075731;28;45304;-67
2023/01/07 06:27:42;;;;;;;;;5.75;4.75;;;;;10.69;67.21;100670.56;5074989;28;45992;-64
2023/01/07 06:30:08;;;;;;;;;3.00;3.00;;;;;10.66;66.49;100678.38;5057211;28;45383;-64
2023/01/07 06:32:41;;;;;;;;;4.40;2.80;;;;;10.59;66.83;100667.44;5075135;28;45446;-64
2023/01/07 06:35:07;;;;;;;;;4.00;3.00;;;;;10.57;67.39;100672.31;5075447;28;45658;-64
2023/01/07 06:37:33;;;;;;;;;4.80;4.00;;;;;10.54;66.74;100669.97;5040082;28;45732;-64
2023/01/07 06:39:59;;;;;;;;;3.25;3.00;;;;;10.47;67.42;100669.16;5073569;28;45581;-64
2023/01/07 06:42:24;;;;;;;;;6.25;5.25;;;;;10.22;67.56;100639.59;5056763;28;45426;-66
2023/01/07 06:44:50;;;;;;;;;5.25;2.50;;;;;10.48;66.95;100676.31;5075125;28;45591;-65
2023/01/07 06:47:15;;;;;;;;;3.00;3.00;;;;;10.47;67.40;100675.50;5056720;28;46192;-66
2023/01/07 06:49:41;;;;;;;;;0.00;0.00;;;;;10.47;67.37;100671.88;5075237;28;45561;-65
2023/01/07 06:52:06;;;;;;;;;4.00;4.00;;;;;10.49;67.15;100667.03;5056774;28;45447;-65
2023/01/07 06:54:32;;;;;;;;;4.00;4.00;;;;;10.46;67.44;100660.06;5075125;28;45658;-65
2023/01/07 06:56:57;;;;;;;;;2.75;2.75;;;;;10.43;67.01;100666.84;5056756;28;45483;-65
2023/01/07 06:59:23;;;;;;;;;3.25;3.25;;;;;10.44;67.21;100653.94;5056333;28;45335;-63
2023/01/07 07:01:48;;;;;;;;;5.00;3.50;;;;;10.22;66.48;100617.66;5075207;28;45345;-64
2023/01/07 07:04:14;;;;;;;;;5.00;5.00;;;;;10.38;67.19;100641.91;5056638;28;45401;-63
2023/01/07 07:06:39;;;;;;;;;3.00;3.00;;;;;10.33;66.86;100633.47;5056377;28;46056;-65
2023/01/07 07:09:05;;;;;;;;;5.00;3.50;;;;;10.29;67.40;100635.78;5056415;28;45602;-65
2023/01/07 07:11:30;;;;;;;;;3.25;3.00;;;;;10.28;67.56;100634.09;5075075;28;45232;-65
2023/01/07 07:13:56;;;;;;;;;5.00;3.50;;;;;10.26;67.25;100636.19;5075473;28;45332;-64
2023/01/07 07:16:22;;;;;;;;;3.50;3.50;;;;;10.25;66.95;100640.00;5072995;28;45924;-65
2023/01/07 07:18:48;;;;;;;;;4.00;4.00;;;;;9.77;67.10;100556.94;5056577;28;45377;-66
2023/01/07 07:21:14;;;;;;;;;6.00;3.00;;;;;10.21;66.94;100629.69;5073255;28;45407;-66
2023/01/07 07:23:39;;;;;;;;;4.00;4.00;;;;;10.12;67.83;100624.41;5075013;28;45338;-65
2023/01/07 07:26:04;;;;;;;;;5.25;5.25;;;;;9.99;67.20;100611.53;5056047;28;47150;-65
2023/01/07 07:28:30;;;;;;;;;3.75;3.75;;;;;10.12;66.93;100629.03;5074122;28;45433;-64
2023/01/07 07:30:56;;;;;;;;;3.25;3.25;;;;;10.15;67.88;100623.97;5074764;28;45416;-65
2023/01/07 07:33:21;;;;;;;;;4.50;4.50;;;;;10.11;67.18;100613.66;5074353;28;45467;-66
2023/01/07 07:35:47;;;;;;;;;4.00;4.00;;;;;9.79;67.22;100562.22;5074451;28;45372;-67
2023/01/07 07:38:13;;;;;;;;;4.75;3.75;;;;;10.10;67.22;100618.31;5056362;28;45395;-64
2023/01/07 07:40:38;;;;;;;;;3.50;3.25;;;;;10.08;67.13;100617.66;5074622;28;45444;-65
2023/01/07 07:43:03;;;;;;;;;4.50;4.50;;;;;10.03;66.98;100607.31;5076681;28;45267;-65
2023/01/07 07:45:29;;;;;;;;;3.50;3.00;;;;;10.01;66.76;100614.06;5059259;28;45354;-65
2023/01/07 07:47:55;;;;;;;;;6.25;4.50;;;;;9.97;66.61;100602.69;5060036;28;45296;-65
2023/01/07 07:50:21;;;;;;;;;4.00;3.00;;;;;9.99;67.16;100599.75;5059609;28;45287;-65
2023/01/07 07:52:46;;;;;;;;;4.00;4.00;;;;;9.74;66.98;100564.75;5076985;28;45422;-65
2023/01/07 07:55:12;;;;;;;;;2.25;2.25;;;;;9.92;66.99;100607.13;5059308;28;45572;-64
2023/01/07 07:57:37;;;;;;;;;3.75;3.75;;;;;9.90;67.12;100594.47;5077654;28;45361;-65
2023/01/07 08:00:04;;;;;;;;;5.50;4.00;;;;;9.77;66.47;100578.03;5077961;28;45270;-65
2023/01/07 08:02:29;;;;;;;;;4.00;3.80;;;;;9.52;67.08;100526.59;5077734;28;45511;-64
2023/01/07 08:04:55;;;;;;;;;2.25;2.25;;;;;9.99;67.52;100608.78;5077666;28;46285;-66
2023/01/07 08:07:20;;;;;;;;;6.50;4.75;;;;;9.96;67.31;100597.41;5059552;28;45441;-65
2023/01/07 08:09:46;;;;;;;;;3.00;3.00;;;;;9.96;66.77;100597.41;5077607;28;45400;-65
2023/01/07 08:12:11;;;;;;;;;4.25;4.25;;;;;9.95;66.64;100596.59;5078190;28;45536;-66
2023/01/07 08:14:37;;;;;;;;;7.25;5.00;;;;;9.96;66.76;100589.19;5059340;28;47107;-66
2023/01/07 08:17:02;;;;;;;;;6.00;5.50;;;;;9.95;66.63;100593.84;5032499;28;45462;-65
2023/01/07 08:19:28;;;;;;;;;5.25;4.00;;;;;9.96;66.49;100597.41;5055142;28;45303;-66
2023/01/07 08:21:53;;;;;;;;;4.75;4.75;;;;;9.94;66.13;100599.53;5053439;28;45722;-66
2023/01/07 08:24:19;;;;;;;;;4.00;2.75;;;;;9.95;66.55;100595.72;5057199;28;46071;-66
2023/01/07 08:26:44;;;;;;;;;3.75;3.75;;;;;9.73;65.95;100572.09;5038849;28;45779;-67
2023/01/07 08:29:10;;;;;;;;;6.75;6.75;;;;;9.91;66.20;100598.03;5057102;28;45342;-65
2023/01/07 08:31:35;;;;;;;;;13.50;8.75;;;;;9.90;66.21;100583.50;5057487;28;45403;-65
2023/01/07 08:34:00;;;;;;;;;12.75;7.75;;;;;9.91;66.29;100581.59;5021515;28;47057;-66
2023/01/07 08:36:26;;;;;;;;;3.50;3.50;;;;;9.75;66.39;100552.72;5056913;28;45187;-65
2023/01/07 08:38:52;;;;;;;;;8.00;3.50;;;;;9.97;66.17;100560.75;5023381;27;45642;-63
2023/01/07 08:41:19;;;;;;;;;0.60;0.60;;;;;9.97;65.67;100556.06;5046908;28;46071;-62
2023/01/07 08:43:44;;;;;;;;;4.40;4.40;;;;;9.95;65.93;100568.31;5070441;28;45704;-63
2023/01/07 08:46:10;;;;;;;;;4.25;3.00;;;;;9.94;66.36;100553.78;5072272;28;45448;-64
2023/01/07 08:48:37;;;;;;;;;7.00;4.50;;;;;9.93;66.29;100560.28;5072113;28;45446;-65
2023/01/07 08:51:03;;;;;;;;;3.40;3.40;;;;;9.96;65.96;100551.66;5052946;28;45548;-64
2023/01/07 08:53:28;;;;;;;;;11.50;6.00;;;;;9.96;65.39;100543.44;5053438;28;46439;-64
2023/01/07 08:55:54;;;;;;;;;4.75;4.75;;;;;9.99;65.87;100533.94;5072371;28;45550;-65
2023/01/07 08:58:19;;;;;;;;;5.50;5.50;;;;;9.94;65.63;100525.50;5072926;28;45384;-64
2023/01/07 09:00:45;;;;;;;;;4.00;4.00;;;;;9.90;66.45;100517.72;5034100;28;45379;-65
2023/01/07 09:03:10;;;;;;;;;4.00;3.00;;;;;9.96;65.83;100520.63;5055945;28;45458;-64
2023/01/07 09:05:36;;;;;;;;;8.25;6.00;;;;;9.98;66.39;100519.38;5061630;28;45369;-65
2023/01/07 09:08:02;;;;;;;;;7.00;5.00;;;;;10.00;65.81;100510.94;5076142;28;45411;-65
2023/01/07 09:10:28;;;;;;;;;6.80;4.00;;;;;10.10;65.48;100521.47;5041803;28;45505;-66
2023/01/07 09:12:53;;;;;;;;;4.25;4.25;;;;;10.11;65.67;100524.00;5076459;28;46507;-65
2023/01/07 09:15:19;;;;;;;;;4.00;4.00;;;;;10.14;65.41;100509.84;5076539;28;45468;-66
2023/01/07 09:17:44;;;;;;;;;6.50;6.00;;;;;10.16;65.22;100504.97;5076801;28;45393;-67
2023/01/07 09:20:10;;;;;;;;;5.75;5.75;;;;;10.04;65.54;100473.81;5069113;28;46639;-67
2023/01/07 09:22:35;;;;;;;;;3.75;3.75;;;;;10.11;65.17;100480.13;5057029;28;46867;-62
2023/01/07 09:25:01;;;;;;;;;6.00;4.50;;;;;10.22;64.78;100485.97;5044898;28;45446;-64
2023/01/07 09:27:27;;;;;;;;;7.25;6.00;;;;;10.05;65.73;100442.59;5058069;28;45317;-65
2023/01/07 09:29:53;;;;;;;;;6.75;6.00;;;;;10.24;65.37;100481.16;5076780;28;45513;-65
2023/01/07 09:32:19;;;;;;;;;5.80;5.80;;;;;10.26;65.96;100465.31;5057706;28;45810;-67
2023/01/07 09:34:45;;;;;;;;;6.40;6.40;;;;;10.22;65.02;100461.31;5076311;28;45314;-65
2023/01/07 09:37:10;;;;;;;;;3.75;3.75;;;;;10.22;65.13;100442.09;5076018;28;45369;-65
2023/01/07 09:39:36;;;;;;;;;6.00;5.00;;;;;10.27;65.10;100443.16;5057845;28;45330;-66
2023/01/07 09:42:21;;;;;;;;;6.75;5.50;;;;;10.43;64.66;100458.31;5075773;28;45417;-66
2023/01/07 09:45:00;;;;;;;;;7.20;5.60;;;;;10.50;64.81;100460.16;5057529;28;45428;-66
2023/01/07 09:47:26;;;;;;;;;7.40;7.40;;;;;10.50;64.20;100444.53;5057789;28;45480;-66
2023/01/07 09:49:54;;;;;;;;;6.00;4.50;;;;;10.54;64.57;100443.06;5041320;28;45487;-67
2023/01/07 09:52:34;;;;;;;;;8.00;5.60;;;;;10.40;64.30;100409.31;5057602;28;45429;-64
2023/01/07 09:55:05;;;;;;;;;3.80;3.80;;;;;10.62;64.65;100436.44;5041804;28;45390;-66
2023/01/07 09:57:30;;;;;;;;;4.00;3.00;;;;;10.47;63.79;100416.72;5074159;28;45452;-64
2023/01/07 09:59:56;;;;;;;;;4.00;4.00;;;;;10.59;64.00;100434.16;5076041;28;45358;-63
2023/01/07 10:03:09;;;;;;;;;5.25;3.00;;;;;10.62;64.14;100436.44;5075145;28;46729;-63
2023/01/07 10:05:39;;;;;;;;;6.00;4.40;;;;;10.65;64.03;100437.91;5047111;27;45433;-62
2023/01/07 10:08:20;;;;;;;;;3.00;3.00;;;;;10.43;63.76;100400.69;5032819;28;45912;-61
2023/01/07 10:10:51;;;;;;;;;4.00;4.00;;;;;10.55;64.37;100438.41;5036386;28;46023;-63
2023/01/07 10:13:38;;;;;;;;;8.20;5.20;;;;;10.56;64.48;100440.06;5032961;28;45790;-61
2023/01/07 10:16:15;;;;;;;;;7.00;5.20;;;;;10.53;64.34;100440.53;5037665;28;45529;-60
2023/01/07 10:18:54;;;;;;;;;6.00;4.00;;;;;10.54;63.99;100423.00;5050175;28;45533;-61
2023/01/07 10:21:25;;;;;;;;;7.40;5.60;;;;;10.61;64.45;100421.06;5028405;28;45610;-62
2023/01/07 10:23:54;;;;;;;;;4.00;4.00;;;;;10.70;63.32;100417.00;5066925;28;45809;-61
2023/01/07 10:26:47;;;;;;;;;5.40;4.00;;;;;10.73;63.94;100421.19;5070602;28;45579;-61
2023/01/07 10:29:25;;;;;;;;;8.60;7.40;;;;;10.70;63.86;100408.78;5063109;28;45698;-61
2023/01/07 10:31:51;;;;;;;;;6.20;5.60;;;;;10.71;63.54;100404.97;5053180;28;45403;-61
2023/01/07 10:34:19;;;;;;;;;4.50;4.50;;;;;10.64;62.97;100364.88;5052550;28;47608;-62
2023/01/07 10:36:48;;;;;;;;;3.20;3.20;;;;;10.88;62.21;100382.44;5035392;28;45419;-62
2023/01/07 10:39:42;;;;;;;;;4.20;4.00;;;;;10.99;62.82;100383.63;5069501;28;45501;-62
2023/01/07 10:42:20;;;;;;;;;4.00;4.00;;;;;11.02;63.15;100385.94;5068617;28;45735;-62
2023/01/07 10:45:11;;;;;;;;;4.00;4.00;;;;;11.07;62.50;100380.63;5052037;28;45443;-64
2023/01/07 10:47:51;;;;;;;;;5.80;4.00;;;;;11.12;62.09;100385.44;5053251;28;45432;-61
2023/01/07 10:50:51;;;;;;;;;8.80;3.80;;;;;11.16;62.55;100381.16;5069486;28;45421;-61
2023/01/07 10:53:43;;;;;;;;;3.00;2.80;;;;;11.14;61.96;100353.06;5071369;28;45479;-61
2023/01/07 10:56:16;;;;;;;;;4.00;4.00;;;;;11.38;62.07;100356.03;5070433;28;45480;-62
2023/01/07 10:58:43;;;;;;;;;5.20;3.80;;;;;11.22;61.37;100333.56;5052570;28;45360;-59
2023/01/07 11:01:23;;;;;;;;;3.80;3.00;;;;;11.40;61.40;100351.16;5019357;28;45557;-58
2023/01/07 11:03:52;;;;;;;;;3.60;2.00;;;;;11.16;61.43;100315.22;5037925;28;45582;-60
2023/01/07 11:06:22;;;;;;;;;5.00;3.20;;;;;11.24;61.32;100316.84;5038502;27;45692;-61
2023/01/07 11:08:48;;;;;;;;;4.80;3.60;;;;;11.38;61.60;100332.13;5034015;28;45454;-60
2023/01/07 11:11:15;;;;;;;;;3.80;3.80;;;;;11.21;61.65;100293.41;5070914;28;45686;-61
2023/01/07 11:13:42;;;;;;;;;5.40;5.40;;;;;11.38;61.29;100310.16;5070743;28;45601;-62
2023/01/07 11:16:19;;;;;;;;;5.00;5.00;;;;;11.36;61.54;100315.03;5052040;28;45715;-61
2023/01/07 11:19:03;;;;;;;;;4.40;4.40;;;;;11.49;61.22;100322.28;5030050;28;45451;-62
2023/01/07 11:21:38;;;;;;;;;2.80;2.40;;;;;11.61;61.07;100310.53;5064302;28;45796;-62
2023/01/07 11:24:23;;;;;;;;;3.40;3.40;;;;;11.72;60.86;100308.91;5069742;28;45480;-65
2023/01/07 11:26:49;;;;;;;;;5.80;4.20;;;;;11.87;60.09;100294.78;5027225;27;45998;-60
2023/01/07 11:29:26;;;;;;;;;6.50;4.75;;;;;12.05;59.86;100289.28;5048052;28;45919;-61
2023/01/07 11:31:53;;;;;;;;;4.60;3.60;;;;;12.10;59.15;100279.50;5047323;28;45535;-62
2023/01/07 11:34:24;;;;;;;;;7.40;3.40;;;;;12.12;58.96;100288.34;5069763;28;45422;-62
2023/01/07 11:36:50;;;;;;;;;7.00;6.00;;;;;12.04;59.19;100276.59;5050755;28;47170;-63
2023/01/07 11:39:21;;;;;;;;;3.00;3.00;;;;;11.85;59.21;100261.19;5085246;27;45915;-62
2023/01/07 11:41:51;;;;;;;;;4.00;4.00;;;;;12.01;59.42;100284.47;5052515;28;45508;-63